Time;durP1;ratioP1;P1;durP2;ratioP2;P2;SDS_P1;SDS_P2;PMS_P1;PMS_P2;Temp;Humidity;BMP_temperature;BMP_pressure;BME280_temperature;BME280_humidity;BME280_pressure;Samples;Min_cycle;Max_cycle;Signal;HPM_P1;HPM_P2
2022/11/22 00:01:49;;;;;;;;;;;;;;;5.39;100.00;99031.56;4993456;28;19914;-60
2022/11/22 00:04:15;;;;;;;;;;;;;;;5.38;100.00;99030.78;4990842;28;19921;-60
2022/11/22 00:06:40;;;;;;;;;;;;;;;5.40;100.00;99044.16;4993240;28;19933;-61
2022/11/22 00:09:05;;;;;;;;;;;;;;;5.40;100.00;99039.47;4992743;28;19913;-60
2022/11/22 00:11:30;;;;;;;;;;;;;;;5.43;100.00;99044.34;4992875;28;19914;-59
2022/11/22 00:13:55;;;;;;;;;;;;;;;5.45;100.00;99038.53;4991838;28;20420;-61
2022/11/22 00:16:20;;;;;;;;;;;;;;;5.44;100.00;99036.91;4993264;28;19914;-61
2022/11/22 00:18:46;;;;;;;;;;;;;;;5.45;100.00;99041.25;4993083;28;19985;-61
2022/11/22 00:21:11;;;;;;;;;;;;;;;5.46;100.00;99034.66;4993273;28;19924;-61
2022/11/22 00:23:36;;;;;;;;;;;;;;;5.47;100.00;99033.53;4993134;28;19914;-60
2022/11/22 00:26:01;;;;;;;;;;;;;;;5.47;100.00;99033.53;4992980;28;19953;-63
2022/11/22 00:28:27;;;;;;;;;;;;;;;5.49;100.00;99033.22;4993042;28;19918;-60
2022/11/22 00:30:52;;;;;;;;;;;;;;;5.50;100.00;99040.31;4992974;28;20419;-61
2022/11/22 00:33:17;;;;;;;;;;;;;;;5.49;100.00;99027.72;4990945;28;19921;-61
2022/11/22 00:35:43;;;;;;;;;;;;;;;5.49;100.00;99033.22;4973027;28;19922;-61
2022/11/22 00:38:09;;;;;;;;;;;;;;;5.46;100.00;99023.69;4972888;28;19917;-61
2022/11/22 00:40:34;;;;;;;;;;;;;;;5.47;100.00;99028.88;4972947;28;20285;-61
2022/11/22 00:42:59;;;;;;;;;;;;;;;5.49;100.00;99035.94;4972602;28;20277;-61
2022/11/22 00:45:24;;;;;;;;;;;;;;;5.51;100.00;99028.22;4972614;28;19914;-62
2022/11/22 00:47:49;;;;;;;;;;;;;;;5.52;100.00;99027.09;4972557;28;19914;-62
2022/11/22 00:50:15;;;;;;;;;;;;;;;5.50;100.00;99034.81;4972760;28;19914;-62
2022/11/22 00:52:40;;;;;;;;;;;;;;;5.47;100.00;99031.63;4972465;28;19959;-62
2022/11/22 00:55:05;;;;;;;;;;;;;;;5.50;100.00;99041.13;4972487;28;19921;-61
2022/11/22 00:57:31;;;;;;;;;;;;;;;5.53;100.00;99040.47;4972381;28;19945;-60
2022/11/22 00:59:56;;;;;;;;;;;;;;;5.50;100.00;99032.91;4970241;28;19914;-60
2022/11/22 01:02:21;;;;;;;;;;;;;;;5.51;100.00;99030.97;4972195;28;20354;-60
2022/11/22 01:04:46;;;;;;;;;;;;;;;5.55;100.00;99019.03;4972744;28;20056;-60
2022/11/22 01:07:12;;;;;;;;;;;;;;;5.55;100.00;99013.56;4972341;28;20310;-61
2022/11/22 01:09:37;;;;;;;;;;;;;;;5.54;100.00;99022.91;4972203;28;19922;-60
2022/11/22 01:12:02;;;;;;;;;;;;;;;5.50;100.00;99019.19;4972462;28;19914;-59
2022/11/22 01:14:27;;;;;;;;;;;;;;;5.46;100.00;99026.44;4972867;28;19921;-60
2022/11/22 01:16:52;;;;;;;;;;;;;;;5.40;100.00;99025.75;4972761;28;20010;-60
2022/11/22 01:19:18;;;;;;;;;;;;;;;5.34;100.00;99023.50;4972693;28;19918;-60
2022/11/22 01:21:43;;;;;;;;;;;;;;;5.29;100.00;99032.66;4972360;28;19914;-60
2022/11/22 01:24:08;;;;;;;;;;;;;;;5.25;100.00;99035.19;4972570;28;19937;-59
2022/11/22 01:26:33;;;;;;;;;;;;;;;5.16;100.00;99028.88;4972603;28;19914;-60
2022/11/22 01:28:59;;;;;;;;;;;;;;;5.15;100.00;99036.28;4972432;28;20432;-60
2022/11/22 01:31:24;;;;;;;;;;;;;;;5.11;100.00;99037.25;4972128;28;19921;-61
2022/11/22 01:33:49;;;;;;;;;;;;;;;5.07;100.00;99033.50;4972391;28;19914;-61
2022/11/22 01:36:14;;;;;;;;;;;;;;;5.01;100.00;99035.56;4972733;28;19914;-61
2022/11/22 01:38:39;;;;;;;;;;;;;;;4.98;100.00;99036.19;4972809;28;20275;-63
2022/11/22 01:41:05;;;;;;;;;;;;;;;4.93;100.00;99039.06;4972837;28;19914;-58
2022/11/22 01:43:30;;;;;;;;;;;;;;;4.89;100.00;99036.13;4972605;28;20367;-59
2022/11/22 01:45:55;;;;;;;;;;;;;;;4.87;100.00;99037.56;4972323;28;19921;-59
2022/11/22 01:48:20;;;;;;;;;;;;;;;4.85;100.00;99043.38;4972107;28;19921;-59
2022/11/22 01:50:48;;;;;;;;;;;;;;;4.84;100.00;99044.50;4971869;28;19984;-59
2022/11/22 01:53:16;;;;;;;;;;;;;;;4.82;100.00;99054.94;4972106;28;19933;-60
2022/11/22 01:55:41;;;;;;;;;;;;;;;4.78;100.00;99053.94;4975428;28;19914;-60
2022/11/22 01:58:08;;;;;;;;;;;;;;;4.77;100.00;99055.09;4973136;28;20044;-61
2022/11/22 02:00:34;;;;;;;;;;;;;;;4.75;100.00;99057.31;4975206;28;19928;-61
2022/11/22 02:03:00;;;;;;;;;;;;;;;4.74;100.00;99064.72;4975984;28;19928;-61
2022/11/22 02:05:29;;;;;;;;;;;;;;;4.71;100.00;99059.06;4975725;28;20001;-62
2022/11/22 02:08:03;;;;;;;;;;;;;;;4.69;100.00;99056.63;4975350;28;19921;-61
2022/11/22 02:10:28;;;;;;;;;;;;;;;4.69;100.00;99059.38;4975317;28;19924;-61
2022/11/22 02:12:56;;;;;;;;;;;;;;;4.69;100.00;99059.38;4974983;28;19918;-60
2022/11/22 02:15:21;;;;;;;;;;;;;;;4.71;100.00;99061.78;4975489;28;19914;-64
2022/11/22 02:17:46;;;;;;;;;;;;;;;4.72;100.00;99068.91;4975609;28;19996;-62
2022/11/22 02:20:12;;;;;;;;;;;;;;;4.69;100.00;99073.06;4975456;28;20135;-60
2022/11/22 02:22:40;;;;;;;;;;;;;;;4.67;100.00;99067.91;4975493;28;19914;-61
2022/11/22 02:25:17;;;;;;;;;;;;;;;4.74;100.00;99067.47;4975244;28;19924;-61
2022/11/22 02:27:43;;;;;;;;;;;;;;;4.71;100.00;99067.28;4975134;28;19918;-60
2022/11/22 02:30:08;;;;;;;;;;;;;;;4.71;100.00;99065.34;4975181;28;19914;-61
2022/11/22 02:32:33;;;;;;;;;;;;;;;4.74;100.00;99069.41;4973750;28;20400;-61
2022/11/22 02:34:58;;;;;;;;;;;;;;;4.69;100.00;99071.13;4974776;28;19960;-60
2022/11/22 02:37:28;;;;;;;;;;;;;;;4.71;100.00;99070.84;4974828;28;19940;-60
2022/11/22 02:40:02;;;;;;;;;;;;;;;4.66;100.00;99074.50;4975155;28;19918;-60
2022/11/22 02:42:29;;;;;;;;;;;;;;;4.66;100.00;99073.69;4974927;28;20377;-60
2022/11/22 02:44:54;;;;;;;;;;;;;;;4.65;100.00;99075.63;4975170;28;20005;-60
2022/11/22 02:47:19;;;;;;;;;;;;;;;4.64;100.00;99078.66;4974997;28;20004;-60
2022/11/22 02:49:44;;;;;;;;;;;;;;;4.63;100.00;99085.28;4975065;28;19921;-60
2022/11/22 02:52:10;;;;;;;;;;;;;;;4.63;100.00;99088.00;4974905;28;20005;-61
2022/11/22 02:54:35;;;;;;;;;;;;;;;4.61;100.00;99087.50;4974554;28;20013;-60
2022/11/22 02:57:03;;;;;;;;;;;;;;;4.60;100.00;99083.16;4974208;28;19921;-60
2022/11/22 02:59:28;;;;;;;;;;;;;;;4.59;100.00;99090.53;4970831;28;20516;-60
2022/11/22 03:01:54;;;;;;;;;;;;;;;4.56;100.00;99082.97;4974579;28;19914;-60
2022/11/22 03:04:25;;;;;;;;;;;;;;;4.56;100.00;99093.09;4973966;28;19914;-60
2022/11/22 03:06:51;;;;;;;;;;;;;;;4.50;100.00;99090.47;4974359;28;19914;-60
2022/11/22 03:09:17;;;;;;;;;;;;;;;4.48;100.00;99094.66;4973172;28;20000;-60
2022/11/22 03:11:42;;;;;;;;;;;;;;;4.50;100.00;99098.69;4974561;28;20025;-60
2022/11/22 03:14:07;;;;;;;;;;;;;;;4.44;100.00;99096.38;4974629;28;19957;-60
2022/11/22 03:16:33;;;;;;;;;;;;;;;4.44;100.00;99101.84;4974310;28;19922;-60
2022/11/22 03:18:58;;;;;;;;;;;;;;;4.39;100.00;99111.00;4973116;28;20025;-60
2022/11/22 03:21:23;;;;;;;;;;;;;;;4.34;100.00;99095.47;4973595;28;20021;-60
2022/11/22 03:23:48;;;;;;;;;;;;;;;4.31;100.00;99114.44;4973677;28;20246;-60
2022/11/22 03:26:13;;;;;;;;;;;;;;;4.25;100.00;99119.22;4973888;28;19959;-60
2022/11/22 03:28:39;;;;;;;;;;;;;;;4.25;100.00;99119.22;4972495;28;19922;-60
2022/11/22 03:31:07;;;;;;;;;;;;;;;4.23;100.00;99113.22;4973570;28;19973;-61
2022/11/22 03:33:35;;;;;;;;;;;;;;;4.20;100.00;99122.09;4973414;28;19980;-61
2022/11/22 03:36:00;;;;;;;;;;;;;;;4.19;100.00;99120.47;4973696;28;20473;-61
2022/11/22 03:38:26;;;;;;;;;;;;;;;4.16;100.00;99126.53;4973405;28;20062;-60
2022/11/22 03:40:51;;;;;;;;;;;;;;;4.19;100.00;99121.25;4973531;28;20012;-60
2022/11/22 03:43:16;;;;;;;;;;;;;;;4.12;100.00;99120.03;4973703;28;19921;-60
2022/11/22 03:45:45;;;;;;;;;;;;;;;4.09;100.00;99124.19;4972083;28;19921;-60
2022/11/22 03:48:11;;;;;;;;;;;;;;;4.02;100.00;99130.06;4973176;28;20013;-60
2022/11/22 03:50:36;;;;;;;;;;;;;;;3.98;100.00;99123.59;4971712;28;19914;-61
2022/11/22 03:53:01;;;;;;;;;;;;;;;3.94;100.00;99125.31;4973512;28;20334;-60
2022/11/22 03:55:26;;;;;;;;;;;;;;;3.92;100.00;99129.47;4973058;28;19914;-61
2022/11/22 03:57:51;;;;;;;;;;;;;;;3.87;100.00;99127.66;4971824;28;20006;-61
2022/11/22 04:00:17;;;;;;;;;;;;;;;3.84;100.00;99122.78;4973830;28;19924;-61
2022/11/22 04:02:42;;;;;;;;;;;;;;;3.79;100.00;99131.09;4973613;28;19928;-62
2022/11/22 04:05:07;;;;;;;;;;;;;;;3.74;100.00;99130.06;4973765;28;20333;-61
2022/11/22 04:07:32;;;;;;;;;;;;;;;3.71;100.00;99135.34;4973667;28;19933;-60
2022/11/22 04:09:57;;;;;;;;;;;;;;;3.66;100.00;99128.03;4972132;28;20369;-61
2022/11/22 04:12:23;;;;;;;;;;;;;;;3.63;100.00;99131.41;4973670;28;19929;-61
2022/11/22 04:15:06;;;;;;;;;;;;;;;3.59;100.00;99131.16;4972206;28;19949;-61
2022/11/22 04:17:44;;;;;;;;;;;;;;;3.59;100.00;99128.44;4973236;28;19918;-60
2022/11/22 04:23:06;;;;;;;;;;;;;;;3.50;100.00;99138.44;4973562;28;20029;-60
2022/11/22 04:25:32;;;;;;;;;;;;;;;3.52;100.00;99135.44;4973273;28;19918;-60
2022/11/22 04:27:58;;;;;;;;;;;;;;;3.46;100.00;99136.59;4973218;28;20258;-60
2022/11/22 04:33:08;;;;;;;;;;;;;;;3.38;100.00;99147.13;4973544;28;20417;-60
2022/11/22 04:35:34;;;;;;;;;;;;;;;3.34;100.00;99158.97;4973330;28;19922;-60
2022/11/22 04:37:59;;;;;;;;;;;;;;;3.32;100.00;99155.72;4973318;28;19914;-60
2022/11/22 04:40:24;;;;;;;;;;;;;;;3.29;100.00;99146.19;4973336;28;19921;-61
2022/11/22 04:45:33;;;;;;;;;;;;;;;3.23;100.00;99152.88;4973430;28;19942;-61
2022/11/22 04:47:58;;;;;;;;;;;;;;;3.21;100.00;99155.06;4973454;28;20583;-61
2022/11/22 04:53:08;;;;;;;;;;;;;;;3.19;100.00;99157.28;4973061;28;20411;-61
2022/11/22 04:55:33;;;;;;;;;;;;;;;3.18;100.00;99161.13;4972211;28;19922;-61
2022/11/22 04:57:58;;;;;;;;;;;;;;;3.17;100.00;99170.44;4971382;28;19992;-61
2022/11/22 05:00:26;;;;;;;;;;;;;;;3.12;100.00;99158.50;4972884;28;19917;-61
2022/11/22 05:02:51;;;;;;;;;;;;;;;3.10;100.00;99157.19;4973034;28;20297;-61
2022/11/22 05:05:16;;;;;;;;;;;;;;;3.09;100.00;99163.75;4972891;28;19914;-61
2022/11/22 05:07:41;;;;;;;;;;;;;;;3.09;100.00;99163.75;4972960;28;19914;-61
2022/11/22 05:10:07;;;;;;;;;;;;;;;3.07;100.00;99165.97;4973062;28;19918;-61
2022/11/22 05:12:32;;;;;;;;;;;;;;;3.05;100.00;99171.72;4973149;28;19921;-61
2022/11/22 05:14:57;;;;;;;;;;;;;;;3.00;100.00;99168.25;4973247;28;19949;-59
2022/11/22 05:17:22;;;;;;;;;;;;;;;2.97;100.00;99173.19;4973240;28;20035;-60
2022/11/22 05:19:47;;;;;;;;;;;;;;;2.95;100.00;99169.94;4972982;28;20261;-61
2022/11/22 05:22:13;;;;;;;;;;;;;;;2.95;100.00;99172.69;4971761;28;19918;-60
2022/11/22 05:24:38;;;;;;;;;;;;;;;2.97;100.00;99172.41;4971956;28;19913;-60
2022/11/22 05:27:03;;;;;;;;;;;;;;;2.92;100.00;99176.03;4970320;28;19918;-60
2022/11/22 05:29:28;;;;;;;;;;;;;;;2.92;100.00;99170.56;4973561;28;19921;-60
2022/11/22 05:31:54;;;;;;;;;;;;;;;2.91;100.00;99177.13;4974360;28;19925;-60
2022/11/22 05:34:19;;;;;;;;;;;;;;;2.89;100.00;99179.34;4976232;28;20332;-60
2022/11/22 05:36:44;;;;;;;;;;;;;;;2.86;100.00;99173.66;4976302;28;19914;-60
2022/11/22 05:39:09;;;;;;;;;;;;;;;2.84;100.00;99171.19;4976341;28;19964;-61
2022/11/22 05:41:34;;;;;;;;;;;;;;;2.82;100.00;99173.44;4976352;28;19914;-61
2022/11/22 05:44:00;;;;;;;;;;;;;;;2.79;100.00;99179.47;4976123;28;20381;-60
2022/11/22 05:46:26;;;;;;;;;;;;;;;2.77;100.00;99178.97;4975980;28;19920;-60
2022/11/22 05:48:52;;;;;;;;;;;;;;;2.77;100.00;99171.59;4976146;28;19918;-61
2022/11/22 05:51:19;;;;;;;;;;;;;;;2.75;100.00;99159.31;4976039;28;20452;-63
2022/11/22 05:53:44;;;;;;;;;;;;;;;2.75;100.00;99173.81;4976067;28;19946;-61
2022/11/22 05:56:17;;;;;;;;;;;;;;;2.72;100.00;99171.66;4974221;28;19915;-61
2022/11/22 05:58:42;;;;;;;;;;;;;;;2.71;100.00;99167.28;4976032;28;20009;-61
2022/11/22 06:01:09;;;;;;;;;;;;;;;2.71;100.00;99169.22;4976610;28;19914;-61
2022/11/22 06:03:35;;;;;;;;;;;;;;;2.66;100.00;99164.66;4976284;28;19969;-61
2022/11/22 06:06:00;;;;;;;;;;;;;;;2.63;100.00;99176.97;4975937;28;19918;-61
2022/11/22 06:08:27;;;;;;;;;;;;;;;2.63;100.00;99173.41;4975744;28;20330;-61
2022/11/22 06:10:52;;;;;;;;;;;;;;;2.62;100.00;99164.44;4975494;28;19914;-61
2022/11/22 06:13:18;;;;;;;;;;;;;;;2.61;100.00;99164.69;4975945;28;19921;-61
2022/11/22 06:15:43;;;;;;;;;;;;;;;2.59;100.00;99170.47;4975740;28;20345;-61
2022/11/22 06:18:08;;;;;;;;;;;;;;;2.57;100.00;99175.41;4975763;28;20036;-61
2022/11/22 06:20:33;;;;;;;;;;;;;;;2.57;100.00;99180.06;4975650;28;19926;-61
2022/11/22 06:22:58;;;;;;;;;;;;;;;2.56;100.00;99170.25;4975102;28;19961;-61
2022/11/22 06:25:24;;;;;;;;;;;;;;;2.52;100.00;99183.69;4974957;28;19993;-61
2022/11/22 06:27:49;;;;;;;;;;;;;;;2.50;100.00;99188.59;4975073;28;19939;-61
2022/11/22 06:30:15;;;;;;;;;;;;;;;2.47;100.00;99186.47;4973710;28;19953;-62
2022/11/22 06:32:41;;;;;;;;;;;;;;;2.44;100.00;99176.16;4974574;28;19984;-62
2022/11/22 06:35:06;;;;;;;;;;;;;;;2.42;100.00;99178.34;4974734;28;19917;-62
2022/11/22 06:37:31;;;;;;;;;;;;;;;2.43;100.00;99174.50;4975078;28;20512;-61
2022/11/22 06:39:57;;;;;;;;;;;;;;;2.42;100.00;99186.53;4974918;28;19914;-61
2022/11/22 06:42:22;;;;;;;;;;;;;;;2.40;100.00;99175.09;4974655;28;20325;-62
2022/11/22 06:44:47;;;;;;;;;;;;;;;2.41;100.00;99174.00;4974867;28;20313;-61
2022/11/22 06:47:12;;;;;;;;;;;;;;;2.43;100.00;99177.25;4974826;28;20381;-62
2022/11/22 06:49:37;;;;;;;;;;;;;;;2.40;100.00;99183.28;4974569;28;20029;-62
2022/11/22 06:52:03;;;;;;;;;;;;;;;2.39;100.00;99187.09;4972281;28;19993;-61
2022/11/22 06:54:28;;;;;;;;;;;;;;;2.33;100.00;99187.19;4974584;28;20440;-61
2022/11/22 06:56:53;;;;;;;;;;;;;;;2.32;100.00;99184.72;4974640;28;19964;-62
2022/11/22 06:59:18;;;;;;;;;;;;;;;2.36;100.00;99195.91;4974624;28;19914;-61
2022/11/22 07:01:43;;;;;;;;;;;;;;;2.38;100.00;99196.41;4974455;28;19957;-60
2022/11/22 07:04:09;;;;;;;;;;;;;;;2.43;100.00;99194.41;4974544;28;20373;-61
2022/11/22 07:06:36;;;;;;;;;;;;;;;2.48;100.00;99202.56;4974652;28;19925;-62
2022/11/22 07:09:02;;;;;;;;;;;;;;;2.55;100.00;99206.84;4974687;28;20013;-62
2022/11/22 07:11:29;;;;;;;;;;;;;;;2.61;100.00;99213.84;4974523;28;19918;-61
2022/11/22 07:13:55;;;;;;;;;;;;;;;2.67;100.00;99214.59;4972846;28;19957;-62
2022/11/22 07:16:20;;;;;;;;;;;;;;;2.73;100.00;99224.38;4973903;28;19953;-62
2022/11/22 07:18:46;;;;;;;;;;;;;;;2.80;100.00;99224.81;4972559;28;19914;-61
2022/11/22 07:21:18;;;;;;;;;;;;;;;2.84;100.00;99228.56;4974476;28;19967;-62
2022/11/22 07:23:44;;;;;;;;;;;;;;;2.90;100.00;99221.94;4983037;28;20405;-62
2022/11/22 07:26:09;;;;;;;;;;;;;;;2.95;100.00;99221.06;4993463;28;19917;-61
2022/11/22 07:28:35;;;;;;;;;;;;;;;3.02;100.00;99212.50;4993875;28;19921;-59
2022/11/22 07:31:01;;;;;;;;;;;;;;;3.04;100.00;99224.75;4993777;28;19913;-62
2022/11/22 07:33:26;;;;;;;;;;;;;;;3.08;100.00;99219.50;4993783;28;19914;-62
2022/11/22 07:35:52;;;;;;;;;;;;;;;3.10;100.00;99222.75;4994228;28;19918;-61
2022/11/22 07:38:17;;;;;;;;;;;;;;;3.15;100.00;99221.88;4993529;28;19914;-59
2022/11/22 07:40:42;;;;;;;;;;;;;;;3.16;100.00;99221.56;4993552;28;19914;-60
2022/11/22 07:43:07;;;;;;;;;;;;;;;3.18;100.00;99227.53;4993849;28;20001;-62
2022/11/22 07:45:32;;;;;;;;;;;;;;;3.23;100.00;99229.38;4993768;28;19921;-61
2022/11/22 07:47:59;;;;;;;;;;;;;;;3.23;100.00;99235.66;4991581;28;20004;-60
2022/11/22 07:50:24;;;;;;;;;;;;;;;3.28;100.00;99232.03;4993830;28;19965;-60
2022/11/22 07:52:56;;;;;;;;;;;;;;;3.31;100.00;99228.72;4993359;28;19953;-60
2022/11/22 07:55:21;;;;;;;;;;;;;;;3.35;100.00;99229.75;4993617;28;19924;-61
2022/11/22 07:57:46;;;;;;;;;;;;;;;3.41;100.00;99233.19;4993337;28;19914;-62
2022/11/22 08:00:12;;;;;;;;;;;;;;;3.45;100.00;99228.75;4993165;28;19913;-61
2022/11/22 08:02:38;;;;;;;;;;;;;;;3.51;100.00;99240.44;4993256;28;19913;-60
2022/11/22 08:05:03;;;;;;;;;;;;;;;3.59;100.00;99229.59;4993612;28;20073;-62
2022/11/22 08:07:29;;;;;;;;;;;;;;;3.58;100.00;99233.47;4993344;28;19921;-61
2022/11/22 08:09:54;;;;;;;;;;;;;;;3.64;100.00;99236.13;4993144;28;19929;-61
2022/11/22 08:12:19;;;;;;;;;;;;;;;3.72;100.00;99235.44;4991872;28;20383;-61
2022/11/22 08:14:44;;;;;;;;;;;;;;;3.80;100.00;99228.47;4973747;28;19918;-62
2022/11/22 08:17:09;;;;;;;;;;;;;;;3.84;100.00;99235.78;4954492;28;20342;-60
2022/11/22 08:19:35;;;;;;;;;;;;;;;3.88;100.00;99234.03;4990159;28;20388;-61
2022/11/22 08:22:00;;;;;;;;;;;;;;;3.96;100.00;99234.47;4993195;28;20667;-61
2022/11/22 08:24:25;;;;;;;;;;;;;;;3.99;100.00;99231.94;4993216;28;19991;-61
2022/11/22 08:26:51;;;;;;;;;;;;;;;4.02;100.00;99228.59;4993188;28;19917;-62
2022/11/22 08:29:16;;;;;;;;;;;;;;;4.10;100.00;99226.28;4981381;28;20384;-60
2022/11/22 08:31:41;;;;;;;;;;;;;;;4.08;100.00;99221.09;4961576;28;19926;-62
2022/11/22 08:34:07;;;;;;;;;;;;;;;4.12;100.00;99232.25;4960391;28;19922;-61
2022/11/22 08:36:32;;;;;;;;;;;;;;;4.13;100.00;99234.69;4955237;28;19946;-62
2022/11/22 08:38:57;;;;;;;;;;;;;;;4.21;100.00;99239.47;4954226;28;19922;-61
2022/11/22 08:41:23;;;;;;;;;;;;;;;4.24;100.00;99242.72;4953257;28;19914;-62
2022/11/22 08:43:48;;;;;;;;;;;;;;;4.26;100.00;99246.78;4951585;28;19918;-61
2022/11/22 08:46:13;;;;;;;;;;;;;;;4.29;100.00;99245.34;4953957;28;19914;-62
2022/11/22 08:48:39;;;;;;;;;;;;;;;4.27;100.00;99248.41;4954056;28;19944;-62
2022/11/22 08:51:06;;;;;;;;;;;;;;;4.29;100.00;99251.66;4952695;28;19922;-62
2022/11/22 08:53:32;;;;;;;;;;;;;;;4.28;100.00;99252.75;4954071;28;19914;-61
2022/11/22 08:56:01;;;;;;;;;;;;;;;4.31;100.00;99249.41;4953927;28;19918;-62
2022/11/22 08:58:27;;;;;;;;;;;;;;;4.39;100.00;99250.63;4953852;28;19921;-62
2022/11/22 09:00:53;;;;;;;;;;;;;;;4.37;100.00;99255.59;4954045;28;19982;-61
2022/11/22 09:03:18;;;;;;;;;;;;;;;4.40;100.00;99251.41;4956519;28;20452;-61
2022/11/22 09:05:43;;;;;;;;;;;;;;;4.41;100.00;99264.00;4958230;28;20377;-63
2022/11/22 09:08:08;;;;;;;;;;;;;;;4.46;100.00;99255.69;4956878;28;19918;-61
2022/11/22 09:10:34;;;;;;;;;;;;;;;4.57;100.00;99259.03;4957003;28;19922;-62
2022/11/22 09:12:59;;;;;;;;;;;;;;;4.62;100.00;99256.22;4956672;29;19969;-60
2022/11/22 09:15:24;;;;;;;;;;;;;;;4.68;100.00;99263.19;4956777;29;20307;-61
2022/11/22 09:17:49;;;;;;;;;;;;;;;4.73;100.00;99260.34;4971542;28;20001;-62
2022/11/22 09:20:15;;;;;;;;;;;;;;;4.78;100.00;99267.63;4956746;28;19922;-62
2022/11/22 09:22:40;;;;;;;;;;;;;;;4.84;100.00;99267.22;4956729;29;19919;-60
2022/11/22 09:25:05;;;;;;;;;;;;;;;4.89;100.00;99268.25;4956441;28;20408;-61
2022/11/22 09:27:31;;;;;;;;;;;;;;;4.88;100.00;99270.16;4956461;28;20005;-62
2022/11/22 09:29:59;;;;;;;;;;;;;;;4.90;100.00;99269.88;4956492;28;20028;-62
2022/11/22 09:32:24;;;;;;;;;;;;;;;4.90;100.00;99270.69;4965953;28;20397;-61
2022/11/22 09:34:49;;;;;;;;;;;;;;;4.91;100.00;99266.81;4976059;28;19926;-61
2022/11/22 09:37:17;;;;;;;;;;;;;;;4.94;100.00;99263.47;4973545;28;20001;-61
2022/11/22 09:39:43;;;;;;;;;;;;;;;5.02;100.00;99258.38;4974442;28;20020;-61
2022/11/22 09:42:27;;;;;;;;;;;;;;;5.10;100.00;99263.13;4975827;28;20302;-62
2022/11/22 09:44:52;;;;;;;;;;;;;;;5.12;100.00;99269.13;4975769;28;19922;-60
2022/11/22 09:47:26;;;;;;;;;;;;;;;5.18;100.00;99262.41;4975879;28;19925;-62
2022/11/22 09:50:17;;;;;;;;;;;;;;;5.22;100.00;99246.13;4975881;28;19921;-63
2022/11/22 09:52:47;;;;;;;;;;;;;;;5.31;100.00;99260.72;4975442;28;20278;-62
2022/11/22 09:55:22;;;;;;;;;;;;;;;5.39;100.00;99250.97;4975760;28;19918;-62
2022/11/22 09:58:06;;;;;;;;;;;;;;;5.43;100.00;99257.47;4975617;28;20355;-61
2022/11/22 10:00:31;;;;;;;;;;;;;;;5.51;100.00;99253.97;4974893;28;19918;-62
2022/11/22 10:03:09;;;;;;;;;;;;;;;5.52;100.00;99263.81;4974972;28;19918;-62
2022/11/22 10:05:47;;;;;;;;;;;;;;;5.55;100.00;99263.19;4975443;28;19969;-63
2022/11/22 10:08:19;;;;;;;;;;;;;;;5.56;100.00;99266.75;4975386;28;20448;-62
2022/11/22 10:10:44;;;;;;;;;;;;;;;5.62;100.00;99263.53;4974757;28;19969;-62
2022/11/22 10:13:21;;;;;;;;;;;;;;;5.62;100.00;99266.28;4973624;28;19960;-62
2022/11/22 10:16:05;;;;;;;;;;;;;;;5.63;100.00;99272.59;4974247;28;19920;-63
2022/11/22 10:18:33;;;;;;;;;;;;;;;5.58;100.00;99268.06;4970862;28;19976;-62
2022/11/22 10:20:58;;;;;;;;;;;;;;;5.59;100.00;99271.59;4972530;28;19929;-60
2022/11/22 10:23:24;;;;;;;;;;;;;;;5.64;100.00;99263.25;4974626;28;19926;-57
2022/11/22 10:25:52;;;;;;;;;;;;;;;5.60;100.00;99264.97;4974230;28;20243;-57
2022/11/22 10:28:22;;;;;;;;;;;;;;;5.61;100.00;99263.88;4974574;28;19914;-57
2022/11/22 10:30:53;;;;;;;;;;;;;;;5.57;100.00;99260.94;4974434;28;19965;-60
2022/11/22 10:33:23;;;;;;;;;;;;;;;5.50;100.00;99252.34;4971849;28;20017;-61
2022/11/22 10:35:58;;;;;;;;;;;;;;;5.52;100.00;99252.84;4974310;28;19918;-60
2022/11/22 10:38:26;;;;;;;;;;;;;;;5.53;100.00;99250.91;4974081;28;19918;-60
2022/11/22 10:40:51;;;;;;;;;;;;;;;5.55;100.00;99249.47;4973970;28;20436;-60
2022/11/22 10:43:41;;;;;;;;;;;;;;;5.54;100.00;99238.81;4970375;28;19922;-60
2022/11/22 10:46:13;;;;;;;;;;;;;;;5.55;100.00;99243.97;4966846;28;19922;-59
2022/11/22 10:48:57;;;;;;;;;;;;;;;5.56;100.00;99233.81;4956775;28;19914;-59
2022/11/22 10:51:40;;;;;;;;;;;;;;;5.58;100.00;99239.78;4954757;29;19957;-59
2022/11/22 10:54:26;;;;;;;;;;;;;;;5.63;100.00;99240.47;4988909;28;19925;-59
2022/11/22 10:57:06;;;;;;;;;;;;;;;5.73;100.00;99233.13;4993447;28;20696;-60
2022/11/22 10:59:31;;;;;;;;;;;;;;;5.79;100.00;99234.63;4992482;28;19938;-60
2022/11/22 11:02:08;;;;;;;;;;;;;;;5.85;100.00;99229.81;4992982;28;19914;-61
2022/11/22 11:04:36;;;;;;;;;;;;;;;5.88;100.00;99227.25;4993230;28;19921;-60
2022/11/22 11:07:04;;;;;;;;;;;;;;;5.93;100.00;99231.78;4993150;28;19976;-61
2022/11/22 11:09:35;;;;;;;;;;;;;;;5.97;100.00;99218.25;4993344;28;19932;-60
2022/11/22 11:12:03;;;;;;;;;;;;;;;6.06;100.00;99217.19;4993144;28;19917;-59
2022/11/22 11:14:38;;;;;;;;;;;;;;;6.11;100.00;99213.50;4993306;28;19914;-60
2022/11/22 11:17:04;;;;;;;;;;;;;;;6.16;100.00;99215.28;4993083;28;19925;-61
2022/11/22 11:19:35;;;;;;;;;;;;;;;6.18;100.00;99211.13;4993043;28;20425;-59
2022/11/22 11:22:11;;;;;;;;;;;;;;;6.20;100.00;99199.81;4992940;28;19913;-59
2022/11/22 11:24:38;;;;;;;;;;;;;;;6.26;100.00;99200.47;4993067;28;19918;-59
2022/11/22 11:27:04;;;;;;;;;;;;;;;6.22;100.00;99198.34;4991915;28;19945;-61
2022/11/22 11:29:32;;;;;;;;;;;;;;;6.27;100.00;99199.34;4990065;28;19918;-60
2022/11/22 11:32:06;;;;;;;;;;;;;;;6.28;100.00;99201.78;4992932;28;19918;-59
2022/11/22 11:34:32;;;;;;;;;;;;;;;6.31;100.00;99197.56;4992932;28;20001;-59
2022/11/22 11:36:58;;;;;;;;;;;;;;;6.29;100.00;99191.59;4991503;28;19917;-60
2022/11/22 11:39:28;;;;;;;;;;;;;;;6.21;100.00;99199.47;4992909;28;20729;-61
2022/11/22 11:41:53;;;;;;;;;;;;;;;6.22;100.00;99192.06;4991534;28;19914;-60
2022/11/22 11:44:27;;;;;;;;;;;;;;;6.23;100.00;99197.22;4992601;28;19925;-60
2022/11/22 11:46:52;;;;;;;;;;;;;;;6.23;100.00;99189.00;4992825;28;19957;-60
2022/11/22 11:49:19;;;;;;;;;;;;;;;6.24;100.00;99189.78;4992534;28;20598;-59
2022/11/22 11:52:08;;;;;;;;;;;;;;;6.27;100.00;99191.91;4992082;28;19921;-60
2022/11/22 11:54:39;;;;;;;;;;;;;;;6.31;100.00;99192.09;4986923;28;20031;-60
2022/11/22 11:57:06;;;;;;;;;;;;;;;6.40;100.00;99190.16;4993276;28;20373;-60
2022/11/22 11:59:37;;;;;;;;;;;;;;;6.36;100.00;99197.44;4992436;28;19963;-60
2022/11/22 12:02:02;;;;;;;;;;;;;;;6.33;100.00;99187.88;4992198;28;19918;-59
2022/11/22 12:04:30;;;;;;;;;;;;;;;6.32;100.00;99196.44;4992179;28;19941;-59
2022/11/22 12:06:58;;;;;;;;;;;;;;;6.27;100.00;99202.09;4992214;28;20348;-59
2022/11/22 12:09:28;;;;;;;;;;;;;;;6.28;100.00;99193.53;4992038;28;20365;-60
2022/11/22 12:11:54;;;;;;;;;;;;;;;6.23;100.00;99199.97;4992020;28;19913;-59
2022/11/22 12:14:21;;;;;;;;;;;;;;;6.27;100.00;99199.34;4991944;28;20012;-59
2022/11/22 12:16:49;;;;;;;;;;;;;;;6.30;100.00;99190.47;4991789;28;19922;-59
2022/11/22 12:19:20;;;;;;;;;;;;;;;6.34;100.00;99200.50;4991629;28;19963;-59
2022/11/22 12:22:01;;;;;;;;;;;;;;;6.37;100.00;99193.56;4991886;28;19960;-59
2022/11/22 12:24:31;;;;;;;;;;;;;;;6.42;100.00;99198.91;4989243;28;20000;-59
2022/11/22 12:26:57;;;;;;;;;;;;;;;6.43;100.00;99197.78;4991792;28;19918;-61
2022/11/22 12:29:22;;;;;;;;;;;;;;;6.45;99.73;99194.72;4991721;28;19921;-61
2022/11/22 12:32:00;;;;;;;;;;;;;;;6.45;100.00;99198.28;4991820;28;19917;-60
2022/11/22 12:34:29;;;;;;;;;;;;;;;6.46;99.29;99197.16;4991618;28;19918;-60
2022/11/22 12:37:03;;;;;;;;;;;;;;;6.47;99.27;99193.25;4989600;28;19957;-60
2022/11/22 12:39:29;;;;;;;;;;;;;;;6.52;100.00;99197.78;4990070;28;20447;-61
2022/11/22 12:41:58;;;;;;;;;;;;;;;6.53;98.72;99193.91;4991257;28;19991;-59
2022/11/22 12:44:24;;;;;;;;;;;;;;;6.56;98.30;99198.78;4963004;28;19957;-60
2022/11/22 12:46:59;;;;;;;;;;;;;;;6.61;98.52;99197.81;4964097;28;20282;-59
2022/11/22 12:49:33;;;;;;;;;;;;;;;6.64;97.91;99191.69;4972015;28;19918;-59
2022/11/22 12:52:08;;;;;;;;;;;;;;;6.76;98.31;99193.81;4970670;28;19924;-60
2022/11/22 12:54:39;;;;;;;;;;;;;;;6.72;97.93;99188.94;4972349;28;19940;-61
2022/11/22 12:57:10;;;;;;;;;;;;;;;6.72;97.33;99191.69;4972410;28;20045;-59
2022/11/22 12:59:40;;;;;;;;;;;;;;;6.71;97.30;99190.06;4971889;28;19925;-60